Time;durP1;ratioP1;P1;durP2;ratioP2;P2;SDS_P1;SDS_P2;PMS_P1;PMS_P2;Temp;Humidity;BMP_temperature;BMP_pressure;BME280_temperature;BME280_humidity;BME280_pressure;Samples;Min_cycle;Max_cycle;Signal;HPM_P1;HPM_P2
2021/06/20 00:00:32;;;;;;;21.48;9.73;;;;;;;16.48;52.88;101032.97;5036517;28;20044;-68
2021/06/20 00:02:58;;;;;;;18.83;9.70;;;;;;;16.27;53.50;101021.13;5026585;28;20037;-68
2021/06/20 00:05:30;;;;;;;23.90;11.30;;;;;;;16.10;54.66;101016.88;5036999;28;20030;-68
2021/06/20 00:07:58;;;;;;;18.23;10.82;;;;;;;15.78;55.78;101007.31;5038437;28;20041;-69
2021/06/20 00:10:26;;;;;;;21.42;11.25;;;;;;;15.73;55.62;100998.00;5041700;28;20021;-68
2021/06/20 00:12:52;;;;;;;21.00;10.18;;;;;;;15.96;55.49;100994.81;5040922;28;20025;-69
2021/06/20 00:15:20;;;;;;;19.17;10.77;;;;;;;15.85;56.07;100981.44;5034255;28;20102;-69
2021/06/20 00:17:46;;;;;;;19.65;10.40;;;;;;;16.21;54.75;100982.78;5020080;28;20502;-69
2021/06/20 00:20:15;;;;;;;18.48;10.35;;;;;;;16.29;54.78;100971.78;5017852;28;20021;-69
2021/06/20 00:22:41;;;;;;;14.82;8.73;;;;;;;16.50;54.25;100972.22;5021930;28;20053;-68
2021/06/20 00:25:07;;;;;;;16.88;9.13;;;;;;;16.58;53.93;100957.59;5020865;28;20903;-69
2021/06/20 00:27:33;;;;;;;19.27;9.75;;;;;;;16.60;54.06;100952.22;5035894;28;20128;-69
2021/06/20 00:29:59;;;;;;;15.93;8.95;;;;;;;16.46;54.53;100949.59;5033614;28;20124;-69
2021/06/20 00:32:24;;;;;;;15.48;9.48;;;;;;;16.51;54.37;100943.09;5038795;28;20056;-69
2021/06/20 00:34:51;;;;;;;27.83;10.52;;;;;;;16.61;54.34;100932.78;5022726;28;20037;-68
2021/06/20 00:37:17;;;;;;;18.23;9.95;;;;;;;16.65;54.27;100918.47;5022707;28;20040;-70
2021/06/20 00:39:43;;;;;;;17.40;10.20;;;;;;;16.48;54.80;100906.34;5037307;28;20071;-68
2021/06/20 00:42:08;;;;;;;20.90;10.02;;;;;;;16.69;54.41;100911.16;5035992;28;20056;-70
2021/06/20 00:44:48;;;;;;;22.02;11.27;;;;;;;16.68;54.78;100912.13;5019242;28;20036;-68
2021/06/20 00:47:13;;;;;;;17.73;10.65;;;;;;;16.72;54.82;100917.09;5010761;28;20041;-69
2021/06/20 00:49:39;;;;;;;19.70;12.35;;;;;;;16.83;54.54;100929.63;5039504;28;20041;-70
2021/06/20 00:52:05;;;;;;;22.60;14.48;;;;;;;16.69;54.96;100930.50;5036061;28;20044;-69
2021/06/20 00:54:31;;;;;;;24.90;12.93;;;;;;;16.70;54.77;100916.34;5002652;28;20068;-69
2021/06/20 00:56:57;;;;;;;22.48;13.40;;;;;;;16.83;54.33;100903.25;5035781;28;20075;-69
2021/06/20 00:59:23;;;;;;;21.23;15.10;;;;;;;16.59;55.11;100876.63;5035397;28;20047;-69
2021/06/20 01:01:49;;;;;;;24.20;14.52;;;;;;;16.47;55.51;100869.53;5018865;28;20060;-69
2021/06/20 01:04:14;;;;;;;24.58;14.02;;;;;;;16.63;55.00;100864.94;5006376;28;20479;-69
2021/06/20 01:06:40;;;;;;;24.00;15.45;;;;;;;16.41;55.51;100858.41;5035073;28;20749;-68
2021/06/20 01:09:06;;;;;;;25.85;14.65;;;;;;;16.47;55.17;100845.78;5040275;28;20090;-69
2021/06/20 01:11:32;;;;;;;23.50;14.32;;;;;;;16.42;55.23;100832.91;5018780;28;20039;-69
2021/06/20 01:13:58;;;;;;;23.67;13.60;;;;;;;16.50;55.13;100821.84;5034127;28;20033;-69
2021/06/20 01:16:26;;;;;;;22.25;13.65;;;;;;;16.42;55.48;100833.75;5019519;28;20129;-68
2021/06/20 01:18:52;;;;;;;23.08;13.95;;;;;;;16.44;55.12;100823.06;5037127;28;20040;-68
2021/06/20 01:21:18;;;;;;;22.77;13.48;;;;;;;16.47;55.02;100819.41;5020810;28;20403;-68
2021/06/20 01:23:43;;;;;;;21.70;13.32;;;;;;;16.40;55.25;100806.63;5023652;28;20033;-69
2021/06/20 01:26:09;;;;;;;21.25;14.18;;;;;;;16.64;54.50;100808.56;5035317;28;20127;-68
2021/06/20 01:28:48;;;;;;;26.35;13.82;;;;;;;16.66;54.30;100803.19;5033542;28;20025;-69
2021/06/20 01:31:14;;;;;;;21.30;14.00;;;;;;;16.56;54.85;100809.09;4997487;28;20037;-68
2021/06/20 01:33:39;;;;;;;24.08;14.38;;;;;;;16.30;55.37;100802.88;5038178;28;20078;-68
2021/06/20 01:36:06;;;;;;;29.02;14.82;;;;;;;16.31;55.39;100791.41;5017547;28;20330;-68
2021/06/20 01:38:32;;;;;;;22.60;14.55;;;;;;;16.01;55.96;100781.03;5035675;28;20041;-68
2021/06/20 01:40:57;;;;;;;31.63;14.82;;;;;;;16.17;55.58;100773.81;5033595;28;20078;-69
2021/06/20 01:43:23;;;;;;;24.23;14.43;;;;;;;16.18;56.00;100772.88;5025633;28;20029;-69
2021/06/20 01:45:49;;;;;;;26.92;15.10;;;;;;;16.36;55.65;100784.03;5016583;28;20037;-69
2021/06/20 01:48:14;;;;;;;18.73;13.55;;;;;;;16.19;56.58;100794.81;5018843;28;20044;-68
2021/06/20 01:50:40;;;;;;;20.63;15.05;;;;;;;16.31;56.28;100791.41;5035016;28;20040;-69
2021/06/20 01:53:11;;;;;;;26.65;16.35;;;;;;;16.11;56.93;100802.41;5035983;28;20040;-68
2021/06/20 01:55:39;;;;;;;24.45;15.55;;;;;;;16.16;57.08;100821.41;5034045;28;20482;-68
2021/06/20 01:58:06;;;;;;;22.27;14.70;;;;;;;16.34;57.09;100841.28;5018593;28;20697;-68
2021/06/20 02:00:32;;;;;;;24.25;17.15;;;;;;;16.09;57.36;100863.13;5018711;28;20033;-68
2021/06/20 02:03:05;;;;;;;25.35;15.90;;;;;;;16.11;57.48;100902.59;5019154;28;20040;-68
2021/06/20 02:05:30;;;;;;;27.77;17.60;;;;;;;15.90;58.35;100908.22;5024238;28;20033;-68
2021/06/20 02:07:56;;;;;;;24.15;16.17;;;;;;;16.14;58.02;100902.38;5016423;28;20044;-68
2021/06/20 02:10:21;;;;;;;24.83;17.13;;;;;;;16.27;57.43;100898.03;5035652;28;20033;-68
2021/06/20 02:12:47;;;;;;;29.30;18.38;;;;;;;16.27;57.83;100887.47;5035039;28;20565;-68
2021/06/20 02:15:16;;;;;;;30.55;18.00;;;;;;;16.26;57.97;100883.13;5019278;28;20574;-68
2021/06/20 02:17:41;;;;;;;27.52;18.33;;;;;;;16.11;58.38;100873.59;5016789;28;20129;-68
2021/06/20 02:20:09;;;;;;;26.15;17.85;;;;;;;16.20;58.51;100875.63;5034329;28;20147;-68
2021/06/20 02:22:36;;;;;;;29.45;18.40;;;;;;;16.13;58.55;100895.41;5021171;28;20045;-68
2021/06/20 02:25:02;;;;;;;31.23;19.13;;;;;;;16.16;58.53;100897.88;5034548;28;20362;-67
2021/06/20 02:27:27;;;;;;;25.25;18.15;;;;;;;16.23;58.54;100875.44;5035484;28;20043;-68
2021/06/20 02:29:55;;;;;;;32.42;18.80;;;;;;;16.34;58.61;100861.56;5036164;28;20029;-68
2021/06/20 02:32:22;;;;;;;31.27;19.17;;;;;;;16.03;59.78;100846.84;5042460;28;20094;-68
2021/06/20 02:34:48;;;;;;;34.67;18.50;;;;;;;16.38;59.22;100831.41;5035162;28;20029;-68
2021/06/20 02:37:16;;;;;;;25.38;17.83;;;;;;;16.26;59.12;100814.56;5037846;28;20032;-68
2021/06/20 02:39:42;;;;;;;29.08;19.73;;;;;;;16.34;58.62;100809.66;5035542;28;20056;-68
2021/06/20 02:42:08;;;;;;;30.42;18.90;;;;;;;16.13;59.41;100803.13;5022164;28;20482;-67
2021/06/20 02:44:35;;;;;;;30.23;19.85;;;;;;;16.11;59.68;100786.59;5025414;28;20132;-68
2021/06/20 02:47:01;;;;;;;28.92;17.90;;;;;;;16.37;59.05;100809.44;5036196;28;20095;-68
2021/06/20 02:49:28;;;;;;;32.58;17.65;;;;;;;16.37;58.78;100829.69;5018014;28;20028;-68
2021/06/20 02:51:54;;;;;;;29.65;19.45;;;;;;;16.35;59.39;100831.59;5035122;28;20033;-68
2021/06/20 02:54:21;;;;;;;28.02;19.02;;;;;;;16.52;59.19;100828.69;5036020;28;20088;-67
2021/06/20 02:56:47;;;;;;;34.10;20.60;;;;;;;16.52;58.76;100827.84;5027328;28;20047;-68
2021/06/20 02:59:13;;;;;;;33.63;19.42;;;;;;;16.37;58.93;100805.97;5006455;28;20045;-68
2021/06/20 03:01:38;;;;;;;31.85;19.15;;;;;;;15.92;60.22;100768.44;5026298;28;20477;-67
2021/06/20 03:04:04;;;;;;;29.98;19.70;;;;;;;16.23;59.68;100754.13;5021067;28;20032;-67
2021/06/20 03:06:30;;;;;;;27.27;18.45;;;;;;;16.30;59.55;100734.31;5034815;28;20061;-69
2021/06/20 03:08:55;;;;;;;30.75;18.50;;;;;;;16.25;59.54;100740.84;5036495;28;20033;-68
2021/06/20 03:11:21;;;;;;;28.77;19.38;;;;;;;16.18;59.44;100749.16;5020515;28;20037;-67
2021/06/20 03:13:48;;;;;;;34.13;19.88;;;;;;;16.22;59.55;100731.34;5040659;28;20689;-67
2021/06/20 03:16:15;;;;;;;29.52;20.25;;;;;;;16.15;59.48;100722.13;5026846;28;20044;-68
2021/06/20 03:18:41;;;;;;;29.25;19.08;;;;;;;16.09;59.77;100725.19;5043013;28;20029;-68
2021/06/20 03:21:07;;;;;;;29.85;19.10;;;;;;;16.13;60.12;100729.31;5025546;28;20056;-68
2021/06/20 03:23:33;;;;;;;31.45;19.23;;;;;;;15.94;60.48;100698.00;5021685;28;20029;-68
2021/06/20 03:25:58;;;;;;;33.92;21.13;;;;;;;15.93;60.37;100684.00;5020820;28;20415;-68
2021/06/20 03:28:24;;;;;;;31.48;20.52;;;;;;;15.70;61.04;100655.66;5022234;28;20492;-68
2021/06/20 03:30:49;;;;;;;34.28;21.60;;;;;;;15.72;61.19;100636.16;5026648;28;20128;-68
2021/06/20 03:33:15;;;;;;;29.90;18.55;;;;;;;15.58;62.04;100621.25;5042124;28;20041;-67
2021/06/20 03:35:40;;;;;;;28.27;19.02;;;;;;;15.55;62.46;100610.94;5021190;28;20048;-68
2021/06/20 03:38:06;;;;;;;29.80;20.42;;;;;;;15.73;61.95;100608.88;5038289;28;20033;-68
2021/06/20 03:40:32;;;;;;;29.92;20.25;;;;;;;15.58;62.30;100608.09;5039130;28;20115;-67
2021/06/20 03:42:57;;;;;;;32.47;19.55;;;;;;;15.79;61.64;100583.91;5040814;28;20059;-68
2021/06/20 03:45:23;;;;;;;28.67;18.30;;;;;;;15.93;61.54;100573.31;5040738;28;20029;-68
2021/06/20 03:47:48;;;;;;;34.67;19.83;;;;;;;15.77;61.69;100570.00;5040573;28;20082;-67
2021/06/20 03:50:14;;;;;;;29.75;19.13;;;;;;;15.91;61.59;100554.09;5020555;28;20379;-68
2021/06/20 03:52:39;;;;;;;33.67;20.35;;;;;;;15.69;62.25;100554.69;5018772;28;20033;-68
2021/06/20 03:55:07;;;;;;;31.08;19.27;;;;;;;15.82;61.78;100538.94;5003397;28;20040;-68
2021/06/20 03:57:33;;;;;;;38.05;23.52;;;;;;;15.65;62.29;100520.75;5026549;28;20033;-68
2021/06/20 03:59:58;;;;;;;38.25;23.90;;;;;;;15.53;63.07;100515.38;5037678;28;20525;-68
2021/06/20 04:02:24;;;;;;;38.83;23.23;;;;;;;15.80;62.12;100509.19;5038424;28;20057;-68
2021/06/20 04:04:49;;;;;;;46.80;25.38;;;;;;;15.69;62.62;100519.63;5026045;28;20029;-68
2021/06/20 04:07:16;;;;;;;44.17;24.60;;;;;;;15.76;62.62;100512.97;5003310;28;20037;-68
2021/06/20 04:09:42;;;;;;;44.58;25.35;;;;;;;16.00;61.84;100500.78;5039526;28;20037;-68
2021/06/20 04:12:13;;;;;;;47.90;25.30;;;;;;;15.84;62.22;100486.97;5035583;28;20094;-68
2021/06/20 04:14:40;;;;;;;46.47;23.92;;;;;;;16.27;61.13;100489.28;5043218;28;20033;-68
2021/06/20 04:17:06;;;;;;;38.70;22.00;;;;;;;16.11;61.60;100470.22;5037589;28;20047;-68
2021/06/20 04:19:31;;;;;;;42.28;22.95;;;;;;;15.95;61.97;100471.25;5025033;28;20643;-68
2021/06/20 04:21:57;;;;;;;43.60;23.02;;;;;;;16.10;61.43;100494.88;5019838;28;20056;-68
2021/06/20 04:24:22;;;;;;;37.67;23.10;;;;;;;16.40;60.57;100508.56;5006863;28;20045;-67
2021/06/20 04:26:48;;;;;;;45.38;25.27;;;;;;;16.40;60.50;100492.75;5034900;28;20040;-68
2021/06/20 04:29:14;;;;;;;39.40;23.10;;;;;;;16.21;61.33;100472.09;5018497;28;20408;-68
2021/06/20 04:31:40;;;;;;;42.80;23.23;;;;;;;16.40;60.55;100471.63;5026458;28;20116;-68
2021/06/20 04:34:05;;;;;;;41.92;22.83;;;;;;;16.44;60.52;100464.34;5019574;28;20040;-68
2021/06/20 04:36:31;;;;;;;42.00;22.88;;;;;;;16.37;60.60;100463.94;5019935;28;20440;-68
2021/06/20 04:38:57;;;;;;;43.03;21.42;;;;;;;16.42;60.70;100464.47;5035096;28;20048;-67
2021/06/20 04:41:24;;;;;;;37.75;21.23;;;;;;;16.61;60.36;100481.59;5034878;22;20025;-69
2021/06/20 04:46:28;;;;;;;33.50;20.48;;;;;;;16.91;59.59;100514.66;5042844;28;20036;-68
2021/06/20 04:48:56;;;;;;;42.45;21.27;;;;;;;16.97;59.50;100517.72;5035704;28;20041;-68
2021/06/20 04:51:21;;;;;;;40.45;20.23;;;;;;;16.96;59.02;100515.19;5042117;28;20048;-67
2021/06/20 04:53:48;;;;;;;42.95;22.02;;;;;;;17.01;59.19;100520.97;5036123;28;20040;-67
2021/06/20 04:56:13;;;;;;;40.47;22.58;;;;;;;17.07;59.12;100519.66;5033741;28;20033;-66
2021/06/20 04:58:40;;;;;;;37.10;21.30;;;;;;;17.18;59.06;100523.22;5015740;28;20037;-67
2021/06/20 05:01:05;;;;;;;35.75;20.80;;;;;;;17.30;58.76;100533.84;5032855;28;20441;-67
2021/06/20 05:03:31;;;;;;;34.50;21.38;;;;;;;17.20;59.05;100538.94;5035736;28;20494;-67
2021/06/20 05:05:56;;;;;;;36.30;21.30;;;;;;;17.32;58.54;100531.94;5040844;28;20094;-67
2021/06/20 05:08:22;;;;;;;32.33;19.63;;;;;;;17.47;58.60;100562.50;5029729;28;20033;-70
2021/06/20 05:10:48;;;;;;;36.45;19.95;;;;;;;17.45;58.15;100559.13;5033385;28;20040;-69
2021/06/20 05:13:13;;;;;;;29.10;17.90;;;;;;;17.44;58.23;100552.16;5035079;28;20398;-67
2021/06/20 05:15:39;;;;;;;27.48;16.77;;;;;;;17.41;58.25;100569.06;5032933;28;20045;-68
2021/06/20 05:18:04;;;;;;;26.30;16.88;;;;;;;17.40;58.17;100566.53;5031978;28;20402;-68
2021/06/20 05:20:30;;;;;;;30.23;17.15;;;;;;;17.34;58.66;100564.38;5033083;28;20044;-67
2021/06/20 05:22:55;;;;;;;22.95;15.27;;;;;;;17.19;58.53;100561.03;5035431;28;20061;-68
2021/06/20 05:25:21;;;;;;;23.15;15.60;;;;;;;17.31;58.61;100556.66;5034604;28;20296;-67
2021/06/20 05:27:46;;;;;;;23.40;15.90;;;;;;;16.91;59.15;100549.84;5031392;28;20397;-69
2021/06/20 05:30:13;;;;;;;26.30;15.40;;;;;;;17.17;58.52;100544.47;5034037;28;20208;-67
2021/06/20 05:32:39;;;;;;;21.50;15.40;;;;;;;17.04;59.43;100536.59;5033855;28;20082;-69
2021/06/20 05:35:05;;;;;;;26.55;15.30;;;;;;;16.95;59.26;100545.19;5033214;28;20033;-69
2021/06/20 05:37:31;;;;;;;24.50;16.20;;;;;;;17.07;59.06;100552.22;5032180;28;20032;-70
2021/06/20 05:40:00;;;;;;;25.85;16.33;;;;;;;16.97;59.39;100530.06;5034253;28;20385;-67
2021/06/20 05:42:25;;;;;;;24.70;15.38;;;;;;;16.99;59.46;100536.09;5047086;28;20037;-69
2021/06/20 05:44:50;;;;;;;27.58;16.73;;;;;;;17.18;59.06;100527.66;5034355;28;20395;-68
2021/06/20 05:47:16;;;;;;;24.98;16.30;;;;;;;17.33;58.56;100515.13;5031524;28;20067;-68
2021/06/20 05:49:41;;;;;;;25.73;19.25;;;;;;;16.97;59.33;100507.16;5033062;28;20025;-68
2021/06/20 05:52:07;;;;;;;27.70;17.08;;;;;;;17.35;58.55;100505.28;5032952;28;20029;-67
2021/06/20 05:54:33;;;;;;;25.52;16.80;;;;;;;17.26;58.90;100506.81;5033651;28;20212;-68
2021/06/20 05:56:59;;;;;;;31.10;17.40;;;;;;;17.59;57.63;100498.19;5033813;28;20043;-69
2021/06/20 05:59:24;;;;;;;26.60;17.13;;;;;;;17.45;58.41;100498.38;5033534;28;20111;-69
2021/06/20 06:01:51;;;;;;;25.83;15.68;;;;;;;17.48;57.56;100492.03;5032587;28;20026;-68
2021/06/20 06:04:17;;;;;;;26.67;15.25;;;;;;;17.56;57.62;100492.28;5032693;28;20486;-68
2021/06/20 06:06:43;;;;;;;26.33;15.48;;;;;;;17.86;56.99;100492.59;5033270;28;20036;-70
2021/06/20 06:09:09;;;;;;;22.05;13.93;;;;;;;17.60;57.20;100491.97;5033999;28;20521;-69
2021/06/20 06:11:35;;;;;;;20.27;13.73;;;;;;;17.64;57.20;100489.91;5046367;28;20100;-70
2021/06/20 06:14:01;;;;;;;27.38;14.25;;;;;;;17.65;57.69;100491.59;5039013;28;20508;-67
2021/06/20 06:16:27;;;;;;;22.83;14.90;;;;;;;17.62;57.39;100490.00;5039260;28;20041;-69
2021/06/20 06:18:52;;;;;;;22.48;14.95;;;;;;;17.42;58.11;100488.00;5037705;28;20533;-67
2021/06/20 06:21:19;;;;;;;22.80;14.85;;;;;;;17.05;59.18;100482.84;5032670;28;20029;-70
2021/06/20 06:23:45;;;;;;;17.98;13.77;;;;;;;17.41;58.07;100481.91;5037263;28;20161;-68
2021/06/20 06:26:11;;;;;;;22.55;14.35;;;;;;;17.76;57.47;100477.53;5045054;28;20056;-68
2021/06/20 06:28:36;;;;;;;20.33;12.20;;;;;;;17.89;57.32;100480.94;5034026;28;20095;-68
2021/06/20 06:31:02;;;;;;;18.40;13.65;;;;;;;17.93;56.92;100479.75;5030329;28;20025;-68
2021/06/20 06:33:29;;;;;;;16.38;11.65;;;;;;;17.69;57.87;100486.91;5033760;28;20090;-70
2021/06/20 06:35:56;;;;;;;19.83;13.15;;;;;;;17.67;57.42;100486.19;5030235;28;20037;-67
2021/06/20 06:38:22;;;;;;;22.10;13.00;;;;;;;17.75;57.23;100487.28;5033156;28;20126;-68
2021/06/20 06:40:47;;;;;;;11.48;10.27;;;;;;;17.50;58.21;100488.31;5048032;28;20480;-68
2021/06/20 06:43:13;;;;;;;19.95;11.85;;;;;;;18.18;57.11;100480.47;5033130;28;20044;-69
2021/06/20 06:45:38;;;;;;;21.65;13.38;;;;;;;18.22;57.09;100490.72;5029251;28;20124;-68
2021/06/20 06:48:05;;;;;;;17.90;11.65;;;;;;;18.41;55.75;100479.53;5043250;28;20107;-69
2021/06/20 06:50:31;;;;;;;22.40;11.75;;;;;;;18.46;56.16;100477.34;5034815;28;20029;-69
2021/06/20 06:52:56;;;;;;;15.68;11.38;;;;;;;18.63;55.98;100483.09;5035536;28;20037;-68
2021/06/20 06:55:22;;;;;;;17.23;10.20;;;;;;;18.71;55.63;100475.38;5037501;28;20033;-69
2021/06/20 06:57:47;;;;;;;14.30;10.70;;;;;;;18.83;55.46;100474.41;5037455;28;20046;-67
2021/06/20 07:00:13;;;;;;;11.68;9.85;;;;;;;18.97;55.15;100477.75;5036037;28;20037;-67
2021/06/20 07:02:39;;;;;;;16.27;9.93;;;;;;;18.82;55.49;100478.00;5039014;28;20119;-69
2021/06/20 07:05:05;;;;;;;19.95;9.50;;;;;;;18.58;55.71;100480.81;5018540;28;20554;-68
2021/06/20 07:07:31;;;;;;;19.98;10.85;;;;;;;18.75;55.45;100490.06;5034006;28;20028;-70
2021/06/20 07:10:00;;;;;;;17.55;8.77;;;;;;;18.73;55.86;100489.34;5032870;28;20359;-67
2021/06/20 07:12:30;;;;;;;15.25;9.13;;;;;;;18.82;55.71;100493.88;5034647;28;20033;-68
2021/06/20 07:14:56;;;;;;;22.25;8.45;;;;;;;18.34;56.69;100486.28;5034572;28;20039;-67
2021/06/20 07:17:21;;;;;;;11.93;8.65;;;;;;;18.73;56.05;100489.34;5038635;28;20397;-68
2021/06/20 07:19:48;;;;;;;16.75;9.25;;;;;;;18.55;56.49;100486.38;5044228;28;20395;-69
2021/06/20 07:22:14;;;;;;;15.50;9.07;;;;;;;18.39;57.10;100492.03;5049144;28;20029;-68
2021/06/20 07:24:40;;;;;;;18.52;8.93;;;;;;;18.83;56.51;100494.72;5041334;28;20028;-67
2021/06/20 07:27:06;;;;;;;12.77;8.63;;;;;;;18.73;56.36;100489.34;5034041;28;20021;-67
2021/06/20 07:29:31;;;;;;;11.48;9.05;;;;;;;18.85;56.15;100483.06;5050351;28;20399;-67
2021/06/20 07:31:57;;;;;;;17.33;9.70;;;;;;;18.69;56.25;100483.44;5029748;28;20537;-67
2021/06/20 07:34:23;;;;;;;13.93;10.20;;;;;;;18.73;56.39;100494.63;5033122;28;20035;-69
2021/06/20 07:36:51;;;;;;;12.73;9.70;;;;;;;19.18;55.38;100498.97;5032369;28;20125;-69
2021/06/20 07:39:17;;;;;;;12.20;9.13;;;;;;;20.05;52.69;100498.75;5034118;28;20040;-68
2021/06/20 07:41:43;;;;;;;12.68;8.73;;;;;;;21.70;49.10;100492.88;5033097;28;20033;-68
2021/06/20 07:44:09;;;;;;;10.85;7.38;;;;;;;22.76;45.73;100488.09;5034818;28;20022;-68
2021/06/20 07:46:35;;;;;;;11.27;7.22;;;;;;;22.18;46.86;100474.13;5033058;28;20402;-68
2021/06/20 07:49:00;;;;;;;11.15;8.25;;;;;;;20.37;51.16;100487.16;5034673;28;20514;-67
2021/06/20 07:51:26;;;;;;;11.02;8.60;;;;;;;20.85;49.11;100479.34;5034361;28;20041;-67
2021/06/20 07:53:51;;;;;;;10.63;7.40;;;;;;;22.03;46.21;100488.03;5036026;28;20143;-69
2021/06/20 07:56:17;;;;;;;10.38;7.57;;;;;;;21.36;47.41;100491.50;5038704;28;20052;-68
2021/06/20 07:58:43;;;;;;;15.27;7.65;;;;;;;20.23;49.67;100485.72;5036051;28;20037;-68
2021/06/20 08:01:08;;;;;;;9.10;7.32;;;;;;;20.37;48.49;100501.25;5027876;28;20044;-67
2021/06/20 08:03:34;;;;;;;11.43;7.20;;;;;;;20.52;48.87;100507.88;5034988;28;20036;-69
2021/06/20 08:06:00;;;;;;;11.70;7.60;;;;;;;20.46;48.57;100499.63;5037086;28;20039;-68
2021/06/20 08:08:25;;;;;;;9.65;6.82;;;;;;;20.34;49.14;100506.84;5033545;28;20033;-68
2021/06/20 08:10:51;;;;;;;11.02;8.40;;;;;;;19.74;49.47;100505.81;5031977;28;20036;-67
2021/06/20 08:13:16;;;;;;;14.80;8.55;;;;;;;20.38;48.60;100502.97;5033514;28;20029;-67
2021/06/20 08:15:42;;;;;;;8.77;6.63;;;;;;;21.12;46.26;100505.22;5033273;28;20037;-68
2021/06/20 08:18:08;;;;;;;8.23;6.50;;;;;;;21.62;46.46;100500.72;5035949;28;20036;-69
2021/06/20 08:20:33;;;;;;;7.55;6.07;;;;;;;23.16;42.38;100508.16;5032926;28;20029;-69
2021/06/20 08:22:59;;;;;;;7.13;5.50;;;;;;;26.41;35.94;100499.47;5030352;28;20052;-66
2021/06/20 08:25:25;;;;;;;9.38;6.70;;;;;;;25.51;36.33;100497.03;5032529;28;20501;-67
2021/06/20 08:27:50;;;;;;;6.28;5.65;;;;;;;26.82;36.14;100501.94;5027545;28;20056;-68
2021/06/20 08:30:17;;;;;;;8.63;5.30;;;;;;;28.48;32.36;100503.72;5032973;28;20041;-68
2021/06/20 08:32:42;;;;;;;9.98;5.35;;;;;;;27.48;32.63;100509.50;5030789;28;20041;-68
2021/06/20 08:35:08;;;;;;;7.95;5.97;;;;;;;25.11;37.12;100513.88;5030395;28;20047;-68
2021/06/20 08:37:35;;;;;;;7.18;5.95;;;;;;;23.30;41.21;100515.66;5019772;28;20041;-68
2021/06/20 08:40:03;;;;;;;7.18;5.72;;;;;;;22.06;43.59;100514.34;5037249;28;20036;-68
2021/06/20 08:42:29;;;;;;;13.52;7.13;;;;;;;21.70;45.38;100524.81;5032545;28;20147;-68
2021/06/20 08:44:55;;;;;;;8.57;7.68;;;;;;;21.09;45.18;100524.09;5031188;28;20753;-67
2021/06/20 08:47:20;;;;;;;7.22;5.30;;;;;;;19.98;47.05;100526.78;5032787;28;20036;-67
2021/06/20 08:49:46;;;;;;;7.43;5.40;;;;;;;23.21;42.45;100527.22;5016993;28;20055;-69
2021/06/20 08:52:12;;;;;;;7.85;5.47;;;;;;;22.39;42.96;100528.94;5036992;28;20021;-69
2021/06/20 08:54:38;;;;;;;8.55;6.03;;;;;;;21.23;45.00;100538.78;5030435;28;20098;-67
2021/06/20 08:57:06;;;;;;;9.52;5.78;;;;;;;22.09;43.33;100535.34;5030010;28;20037;-67
2021/06/20 08:59:32;;;;;;;9.85;5.90;;;;;;;20.84;46.68;100544.06;5040938;28;20118;-69
2021/06/20 09:01:57;;;;;;;8.95;6.22;;;;;;;20.19;47.67;100542.66;5033017;28;20055;-70
2021/06/20 09:04:30;;;;;;;7.75;4.55;;;;;;;19.49;48.75;100558.22;5014240;28;20037;-68
2021/06/20 09:07:01;;;;;;;7.28;5.32;;;;;;;20.24;47.47;100572.28;5030847;28;20033;-66
2021/06/20 09:09:35;;;;;;;9.75;4.45;;;;;;;18.70;50.79;100563.72;5034401;28;20045;-70
2021/06/20 09:12:09;;;;;;;5.18;3.67;;;;;;;19.15;49.14;100574.25;5032603;28;20033;-69
2021/06/20 09:14:45;;;;;;;7.47;3.97;;;;;;;19.83;47.14;100589.91;5035793;28;20095;-68
2021/06/20 09:17:12;;;;;;;5.72;3.40;;;;;;;19.57;48.51;100590.28;5038532;28;20037;-69
2021/06/20 09:19:37;;;;;;;3.72;2.90;;;;;;;20.48;46.14;100602.03;5031234;28;20037;-69
2021/06/20 09:22:09;;;;;;;5.10;3.08;;;;;;;19.61;47.94;100590.84;5031510;28;20107;-68
2021/06/20 09:24:37;;;;;;;4.00;2.78;;;;;;;19.22;47.84;100586.03;5042863;28;20292;-69
2021/06/20 09:27:04;;;;;;;4.15;2.63;;;;;;;19.39;48.41;100600.56;5041109;28;20152;-67
2021/06/20 09:29:30;;;;;;;8.02;3.63;;;;;;;19.22;49.63;100596.63;5041368;28;20138;-67
2021/06/20 09:31:58;;;;;;;3.33;2.80;;;;;;;19.55;48.64;100612.53;5030511;28;20573;-69
2021/06/20 09:34:24;;;;;;;4.50;3.25;;;;;;;19.33;49.75;100624.06;5037672;28;20248;-68
2021/06/20 09:36:59;;;;;;;5.20;3.17;;;;;;;18.70;50.27;100627.25;5030221;28;20767;-69
2021/06/20 09:39:25;;;;;;;4.05;3.25;;;;;;;18.19;52.08;100627.69;5032541;28;20025;-69
2021/06/20 09:42:03;;;;;;;5.13;3.22;;;;;;;18.83;50.83;100635.03;5029907;28;20028;-69
2021/06/20 09:44:49;;;;;;;4.07;3.67;;;;;;;18.87;50.15;100645.31;5029657;28;20155;-67
2021/06/20 09:47:17;;;;;;;5.00;2.55;;;;;;;18.19;51.07;100660.25;5031733;28;20482;-68
2021/06/20 09:49:45;;;;;;;6.60;2.15;;;;;;;18.58;50.77;100654.66;5035079;28;20112;-68
2021/06/20 09:52:11;;;;;;;2.17;1.80;;;;;;;18.95;49.60;100654.47;5033055;28;20033;-67
2021/06/20 09:54:39;;;;;;;3.85;1.00;;;;;;;18.06;50.58;100665.59;5033732;28;20036;-68
2021/06/20 09:57:15;;;;;;;1.20;0.60;;;;;;;19.27;48.40;100646.59;5035582;28;20028;-68
2021/06/20 09:59:42;;;;;;;1.27;0.82;;;;;;;19.64;47.19;100649.78;5056193;28;20080;-69
2021/06/20 10:02:12;;;;;;;1.20;0.70;;;;;;;20.12;46.20;100654.59;5046364;28;20013;-68
2021/06/20 10:04:41;;;;;;;3.47;0.52;;;;;;;20.05;45.50;100679.97;5045658;28;20056;-70
2021/06/20 10:07:09;;;;;;;1.45;0.30;;;;;;;19.71;45.49;100666.00;5041608;28;20128;-70
2021/06/20 10:09:36;;;;;;;1.10;0.20;;;;;;;19.94;46.16;100660.63;5034903;28;20100;-68
2021/06/20 10:12:04;;;;;;;0.52;0.40;;;;;;;20.45;45.32;100671.31;5035347;28;20052;-69
2021/06/20 10:14:30;;;;;;;0.85;0.40;;;;;;;20.12;44.65;100691.72;5030118;28;20065;-69
2021/06/20 10:17:01;;;;;;;0.68;0.20;;;;;;;19.52;46.13;100693.13;5033462;28;20086;-68
2021/06/20 10:19:30;;;;;;;2.25;0.30;;;;;;;20.45;45.30;100695.22;5032379;28;20036;-68
2021/06/20 10:22:03;;;;;;;0.90;0.38;;;;;;;21.10;42.84;100697.66;5029121;28;20041;-70
2021/06/20 10:24:29;;;;;;;1.10;0.28;;;;;;;20.78;43.87;100695.97;5046765;28;20107;-69
2021/06/20 10:27:03;;;;;;;0.70;0.20;;;;;;;21.21;43.01;100694.88;5036859;28;20040;-67
2021/06/20 10:29:32;;;;;;;1.60;0.30;;;;;;;20.90;43.21;100702.88;5030157;28;20431;-67
2021/06/20 10:31:59;;;;;;;0.73;0.38;;;;;;;19.97;45.06;100694.81;5028897;28;20256;-69
2021/06/20 10:34:28;;;;;;;1.13;0.20;;;;;;;19.82;45.67;100689.00;5018727;28;20108;-66
2021/06/20 10:36:57;;;;;;;2.25;0.30;;;;;;;20.05;45.24;100695.03;5027875;28;20044;-69
2021/06/20 10:39:24;;;;;;;0.95;0.40;;;;;;;19.97;45.05;100697.47;5030656;28;20405;-70
2021/06/20 10:42:05;;;;;;;1.08;0.30;;;;;;;20.72;43.93;100715.06;5044462;22;20086;-68
2021/06/20 10:44:47;;;;;;;0.70;0.10;;;;;;;20.43;43.58;100714.91;5023243;28;20047;-68
2021/06/20 10:47:35;;;;;;;2.17;0.20;;;;;;;21.29;41.96;100710.19;5032155;28;20033;-68
2021/06/20 10:50:08;;;;;;;0.68;0.30;;;;;;;20.97;41.78;100724.44;5034438;28;20041;-69
2021/06/20 10:52:34;;;;;;;2.65;0.10;;;;;;;20.82;40.97;100731.03;5025737;28;20029;-68
2021/06/20 10:55:04;;;;;;;3.40;0.20;;;;;;;20.46;43.46;100726.13;5020151;28;20041;-68
2021/06/20 10:57:30;;;;;;;0.65;0.32;;;;;;;20.82;41.84;100733.69;5027274;28;20082;-66
2021/06/20 10:59:57;;;;;;;0.65;0.30;;;;;;;21.12;41.72;100732.91;5027702;28;20046;-69
2021/06/20 11:02:30;;;;;;;0.90;0.20;;;;;;;21.36;41.20;100754.66;5025473;28;20742;-67
2021/06/20 11:04:55;;;;;;;1.17;0.20;;;;;;;20.80;41.68;100755.09;5006196;28;20044;-67
2021/06/20 11:07:27;;;;;;;1.48;0.55;;;;;;;21.40;41.13;100757.06;5024988;28;20036;-69
2021/06/20 11:09:53;;;;;;;0.57;0.20;;;;;;;21.18;41.38;100758.09;5023578;28;20024;-68
2021/06/20 11:12:19;;;;;;;0.75;0.40;;;;;;;21.63;41.66;100742.59;5025656;28;20666;-70
2021/06/20 11:14:49;;;;;;;1.70;0.25;;;;;;;22.17;39.70;100746.59;5005552;28;20029;-70